sensor_id;sensor_type;location;lat;lon;timestamp;P1;durP1;ratioP1;P2;durP2;ratioP2
71836;SDS011;59686;51.716;7.016;2023-05-29T00:01:00;4.55;;;2.30;;
71836;SDS011;59686;51.716;7.016;2023-05-29T00:03:25;2.70;;;2.40;;
71836;SDS011;59686;51.716;7.016;2023-05-29T00:06:01;3.05;;;2.30;;
71836;SDS011;59686;51.716;7.016;2023-05-29T00:08:27;4.10;;;2.60;;
71836;SDS011;59686;51.716;7.016;2023-05-29T00:10:53;2.55;;;2.20;;
71836;SDS011;59686;51.716;7.016;2023-05-29T00:13:18;2.33;;;2.10;;
71836;SDS011;59686;51.716;7.016;2023-05-29T00:15:44;3.28;;;2.10;;
71836;SDS011;59686;51.716;7.016;2023-05-29T00:18:11;3.30;;;2.45;;
71836;SDS011;59686;51.716;7.016;2023-05-29T00:20:44;3.13;;;2.20;;
71836;SDS011;59686;51.716;7.016;2023-05-29T00:23:10;4.10;;;2.60;;
71836;SDS011;59686;51.716;7.016;2023-05-29T00:25:36;2.30;;;2.10;;
71836;SDS011;59686;51.716;7.016;2023-05-29T00:28:01;4.82;;;2.53;;
71836;SDS011;59686;51.716;7.016;2023-05-29T00:30:27;3.45;;;2.47;;
71836;SDS011;59686;51.716;7.016;2023-05-29T00:32:54;3.22;;;2.13;;
71836;SDS011;59686;51.716;7.016;2023-05-29T00:35:19;2.88;;;2.20;;
71836;SDS011;59686;51.716;7.016;2023-05-29T00:37:45;2.80;;;2.20;;
71836;SDS011;59686;51.716;7.016;2023-05-29T00:40:11;3.90;;;2.38;;
71836;SDS011;59686;51.716;7.016;2023-05-29T00:42:37;3.28;;;2.55;;
71836;SDS011;59686;51.716;7.016;2023-05-29T00:45:03;3.45;;;2.45;;
71836;SDS011;59686;51.716;7.016;2023-05-29T00:47:42;4.00;;;2.35;;
71836;SDS011;59686;51.716;7.016;2023-05-29T00:50:08;3.72;;;2.30;;
71836;SDS011;59686;51.716;7.016;2023-05-29T00:52:35;3.63;;;2.28;;
71836;SDS011;59686;51.716;7.016;2023-05-29T00:55:04;3.03;;;2.10;;
71836;SDS011;59686;51.716;7.016;2023-05-29T00:57:30;4.45;;;2.50;;
71836;SDS011;59686;51.716;7.016;2023-05-29T01:02:31;6.95;;;2.70;;
71836;SDS011;59686;51.716;7.016;2023-05-29T01:04:56;3.78;;;2.00;;
71836;SDS011;59686;51.716;7.016;2023-05-29T01:07:23;2.35;;;2.00;;
71836;SDS011;59686;51.716;7.016;2023-05-29T01:09:52;3.30;;;2.20;;
71836;SDS011;59686;51.716;7.016;2023-05-29T01:20:50;4.07;;;2.65;;
71836;SDS011;59686;51.716;7.016;2023-05-29T01:29:07;5.97;;;2.40;;
71836;SDS011;59686;51.716;7.016;2023-05-29T01:31:35;4.60;;;2.40;;
71836;SDS011;59686;51.716;7.016;2023-05-29T01:34:02;5.50;;;2.15;;
71836;SDS011;59686;51.716;7.016;2023-05-29T01:36:28;4.18;;;2.30;;
71836;SDS011;59686;51.716;7.016;2023-05-29T01:38:55;4.53;;;2.50;;
71836;SDS011;59686;51.716;7.016;2023-05-29T01:41:22;4.60;;;2.00;;
71836;SDS011;59686;51.716;7.016;2023-05-29T01:43:49;3.45;;;2.10;;
71836;SDS011;59686;51.716;7.016;2023-05-29T01:46:17;4.20;;;2.40;;
71836;SDS011;59686;51.716;7.016;2023-05-29T01:48:48;4.70;;;2.47;;
71836;SDS011;59686;51.716;7.016;2023-05-29T01:51:15;5.18;;;2.50;;
71836;SDS011;59686;51.716;7.016;2023-05-29T01:53:41;5.40;;;2.67;;
71836;SDS011;59686;51.716;7.016;2023-05-29T01:56:08;4.88;;;2.38;;
71836;SDS011;59686;51.716;7.016;2023-05-29T01:58:35;3.90;;;2.35;;
71836;SDS011;59686;51.716;7.016;2023-05-29T02:01:01;5.47;;;2.17;;
71836;SDS011;59686;51.716;7.016;2023-05-29T02:03:29;6.13;;;2.50;;
71836;SDS011;59686;51.716;7.016;2023-05-29T02:05:55;4.68;;;2.35;;
71836;SDS011;59686;51.716;7.016;2023-05-29T02:08:24;5.03;;;2.58;;
71836;SDS011;59686;51.716;7.016;2023-05-29T02:10:50;7.68;;;3.20;;
71836;SDS011;59686;51.716;7.016;2023-05-29T02:13:16;4.03;;;2.42;;
71836;SDS011;59686;51.716;7.016;2023-05-29T02:15:42;5.35;;;2.58;;
71836;SDS011;59686;51.716;7.016;2023-05-29T02:18:12;5.53;;;2.60;;
71836;SDS011;59686;51.716;7.016;2023-05-29T02:20:39;5.10;;;2.45;;
71836;SDS011;59686;51.716;7.016;2023-05-29T02:23:04;4.43;;;2.30;;
71836;SDS011;59686;51.716;7.016;2023-05-29T02:25:30;6.45;;;2.90;;
71836;SDS011;59686;51.716;7.016;2023-05-29T02:27:58;6.63;;;2.38;;
71836;SDS011;59686;51.716;7.016;2023-05-29T02:30:23;6.10;;;2.45;;
71836;SDS011;59686;51.716;7.016;2023-05-29T02:32:49;5.70;;;2.58;;
71836;SDS011;59686;51.716;7.016;2023-05-29T02:35:15;5.65;;;2.40;;
71836;SDS011;59686;51.716;7.016;2023-05-29T02:37:42;5.60;;;2.40;;
71836;SDS011;59686;51.716;7.016;2023-05-29T02:40:08;4.82;;;2.50;;
71836;SDS011;59686;51.716;7.016;2023-05-29T02:42:35;7.07;;;2.80;;
71836;SDS011;59686;51.716;7.016;2023-05-29T02:45:00;4.35;;;2.45;;
71836;SDS011;59686;51.716;7.016;2023-05-29T02:47:26;6.72;;;2.50;;
71836;SDS011;59686;51.716;7.016;2023-05-29T02:49:52;4.18;;;2.20;;
71836;SDS011;59686;51.716;7.016;2023-05-29T02:52:18;5.03;;;2.35;;
71836;SDS011;59686;51.716;7.016;2023-05-29T02:54:43;5.57;;;2.83;;
71836;SDS011;59686;51.716;7.016;2023-05-29T02:57:09;5.47;;;2.47;;
71836;SDS011;59686;51.716;7.016;2023-05-29T02:59:35;5.80;;;2.50;;
71836;SDS011;59686;51.716;7.016;2023-05-29T03:02:05;5.32;;;2.30;;
71836;SDS011;59686;51.716;7.016;2023-05-29T03:04:31;5.38;;;2.38;;
71836;SDS011;59686;51.716;7.016;2023-05-29T03:06:57;4.80;;;2.35;;
71836;SDS011;59686;51.716;7.016;2023-05-29T03:09:23;6.68;;;2.30;;
71836;SDS011;59686;51.716;7.016;2023-05-29T03:11:48;6.30;;;2.00;;
71836;SDS011;59686;51.716;7.016;2023-05-29T03:14:24;6.43;;;2.40;;
71836;SDS011;59686;51.716;7.016;2023-05-29T03:16:50;6.93;;;2.58;;
71836;SDS011;59686;51.716;7.016;2023-05-29T03:19:16;5.95;;;2.20;;
71836;SDS011;59686;51.716;7.016;2023-05-29T03:21:41;5.93;;;2.28;;
71836;SDS011;59686;51.716;7.016;2023-05-29T03:24:07;5.63;;;2.58;;
71836;SDS011;59686;51.716;7.016;2023-05-29T03:26:32;8.77;;;2.80;;
71836;SDS011;59686;51.716;7.016;2023-05-29T03:28:58;5.18;;;2.50;;
71836;SDS011;59686;51.716;7.016;2023-05-29T03:31:24;3.55;;;2.40;;
71836;SDS011;59686;51.716;7.016;2023-05-29T03:33:50;5.30;;;2.17;;
71836;SDS011;59686;51.716;7.016;2023-05-29T03:36:15;4.10;;;2.00;;
71836;SDS011;59686;51.716;7.016;2023-05-29T03:38:42;6.18;;;2.50;;
71836;SDS011;59686;51.716;7.016;2023-05-29T03:41:08;6.13;;;2.53;;
71836;SDS011;59686;51.716;7.016;2023-05-29T03:43:34;8.52;;;2.88;;
71836;SDS011;59686;51.716;7.016;2023-05-29T03:45:59;5.57;;;2.33;;
71836;SDS011;59686;51.716;7.016;2023-05-29T03:48:25;8.60;;;2.70;;
71836;SDS011;59686;51.716;7.016;2023-05-29T03:50:51;7.50;;;2.70;;
71836;SDS011;59686;51.716;7.016;2023-05-29T03:53:16;5.60;;;2.78;;
71836;SDS011;59686;51.716;7.016;2023-05-29T03:55:42;7.38;;;2.60;;
71836;SDS011;59686;51.716;7.016;2023-05-29T03:58:07;6.80;;;2.42;;
71836;SDS011;59686;51.716;7.016;2023-05-29T04:00:33;6.68;;;2.90;;
71836;SDS011;59686;51.716;7.016;2023-05-29T04:02:59;7.00;;;2.80;;
71836;SDS011;59686;51.716;7.016;2023-05-29T04:05:25;5.88;;;2.35;;
71836;SDS011;59686;51.716;7.016;2023-05-29T04:07:52;8.60;;;2.85;;
71836;SDS011;59686;51.716;7.016;2023-05-29T04:10:30;6.28;;;2.60;;
71836;SDS011;59686;51.716;7.016;2023-05-29T04:12:59;8.00;;;2.75;;
71836;SDS011;59686;51.716;7.016;2023-05-29T04:15:25;5.90;;;2.72;;
71836;SDS011;59686;51.716;7.016;2023-05-29T04:17:52;9.25;;;2.63;;
71836;SDS011;59686;51.716;7.016;2023-05-29T04:20:17;6.32;;;2.63;;
71836;SDS011;59686;51.716;7.016;2023-05-29T04:22:43;6.28;;;2.42;;
71836;SDS011;59686;51.716;7.016;2023-05-29T04:25:09;8.10;;;2.63;;
71836;SDS011;59686;51.716;7.016;2023-05-29T04:27:34;5.70;;;2.25;;
71836;SDS011;59686;51.716;7.016;2023-05-29T04:30:06;6.88;;;2.67;;
71836;SDS011;59686;51.716;7.016;2023-05-29T04:32:33;4.70;;;2.28;;
71836;SDS011;59686;51.716;7.016;2023-05-29T04:34:59;7.18;;;2.50;;
71836;SDS011;59686;51.716;7.016;2023-05-29T04:37:28;7.60;;;2.97;;
71836;SDS011;59686;51.716;7.016;2023-05-29T04:39:55;6.43;;;2.20;;
71836;SDS011;59686;51.716;7.016;2023-05-29T04:42:22;8.02;;;2.47;;
71836;SDS011;59686;51.716;7.016;2023-05-29T04:44:50;6.60;;;2.65;;
71836;SDS011;59686;51.716;7.016;2023-05-29T04:47:18;5.60;;;2.47;;
71836;SDS011;59686;51.716;7.016;2023-05-29T04:49:44;7.53;;;2.50;;
71836;SDS011;59686;51.716;7.016;2023-05-29T04:52:14;7.97;;;2.50;;
71836;SDS011;59686;51.716;7.016;2023-05-29T04:54:40;7.40;;;2.38;;
71836;SDS011;59686;51.716;7.016;2023-05-29T04:57:06;8.45;;;2.85;;
71836;SDS011;59686;51.716;7.016;2023-05-29T04:59:31;5.75;;;2.70;;
71836;SDS011;59686;51.716;7.016;2023-05-29T05:01:57;6.57;;;2.38;;
71836;SDS011;59686;51.716;7.016;2023-05-29T05:04:23;9.32;;;2.70;;
71836;SDS011;59686;51.716;7.016;2023-05-29T05:06:49;6.38;;;2.67;;
71836;SDS011;59686;51.716;7.016;2023-05-29T05:09:15;5.60;;;2.53;;
71836;SDS011;59686;51.716;7.016;2023-05-29T05:11:42;5.97;;;2.38;;
71836;SDS011;59686;51.716;7.016;2023-05-29T05:14:08;6.80;;;2.78;;
71836;SDS011;59686;51.716;7.016;2023-05-29T05:16:34;4.72;;;2.38;;
71836;SDS011;59686;51.716;7.016;2023-05-29T05:19:00;6.85;;;2.80;;
71836;SDS011;59686;51.716;7.016;2023-05-29T05:21:25;8.43;;;2.80;;
71836;SDS011;59686;51.716;7.016;2023-05-29T05:23:51;7.25;;;2.97;;
71836;SDS011;59686;51.716;7.016;2023-05-29T05:26:17;6.38;;;2.42;;
71836;SDS011;59686;51.716;7.016;2023-05-29T05:28:43;6.53;;;2.20;;
71836;SDS011;59686;51.716;7.016;2023-05-29T05:31:08;8.75;;;2.67;;
71836;SDS011;59686;51.716;7.016;2023-05-29T05:33:34;6.30;;;2.33;;
71836;SDS011;59686;51.716;7.016;2023-05-29T05:36:00;6.43;;;2.65;;
71836;SDS011;59686;51.716;7.016;2023-05-29T05:38:27;6.32;;;2.75;;
71836;SDS011;59686;51.716;7.016;2023-05-29T05:40:53;7.05;;;2.45;;
71836;SDS011;59686;51.716;7.016;2023-05-29T05:43:19;5.43;;;2.20;;
71836;SDS011;59686;51.716;7.016;2023-05-29T05:45:46;7.45;;;2.38;;
71836;SDS011;59686;51.716;7.016;2023-05-29T05:48:12;8.05;;;2.80;;
71836;SDS011;59686;51.716;7.016;2023-05-29T05:50:37;6.30;;;2.75;;
71836;SDS011;59686;51.716;7.016;2023-05-29T05:53:03;8.35;;;2.50;;
71836;SDS011;59686;51.716;7.016;2023-05-29T05:55:29;8.25;;;2.58;;
71836;SDS011;59686;51.716;7.016;2023-05-29T05:57:54;8.30;;;2.58;;
71836;SDS011;59686;51.716;7.016;2023-05-29T06:00:22;5.30;;;2.22;;
71836;SDS011;59686;51.716;7.016;2023-05-29T06:02:49;5.45;;;2.25;;
71836;SDS011;59686;51.716;7.016;2023-05-29T06:05:14;6.00;;;2.53;;
71836;SDS011;59686;51.716;7.016;2023-05-29T06:07:40;6.82;;;2.33;;
71836;SDS011;59686;51.716;7.016;2023-05-29T06:10:06;6.50;;;2.22;;
71836;SDS011;59686;51.716;7.016;2023-05-29T06:12:33;8.43;;;2.67;;
71836;SDS011;59686;51.716;7.016;2023-05-29T06:15:00;4.47;;;2.03;;
71836;SDS011;59686;51.716;7.016;2023-05-29T06:17:25;5.97;;;2.33;;
71836;SDS011;59686;51.716;7.016;2023-05-29T06:19:51;7.95;;;2.70;;
71836;SDS011;59686;51.716;7.016;2023-05-29T06:22:18;9.05;;;2.60;;
71836;SDS011;59686;51.716;7.016;2023-05-29T06:24:43;4.60;;;2.05;;
71836;SDS011;59686;51.716;7.016;2023-05-29T06:27:09;7.13;;;2.53;;
71836;SDS011;59686;51.716;7.016;2023-05-29T06:29:35;5.75;;;2.20;;
71836;SDS011;59686;51.716;7.016;2023-05-29T06:32:00;7.57;;;2.70;;
71836;SDS011;59686;51.716;7.016;2023-05-29T06:34:26;7.50;;;2.47;;
71836;SDS011;59686;51.716;7.016;2023-05-29T06:36:52;6.45;;;2.47;;
71836;SDS011;59686;51.716;7.016;2023-05-29T06:39:20;6.20;;;2.38;;
71836;SDS011;59686;51.716;7.016;2023-05-29T06:41:46;7.03;;;2.30;;
71836;SDS011;59686;51.716;7.016;2023-05-29T06:44:12;5.28;;;2.35;;
71836;SDS011;59686;51.716;7.016;2023-05-29T06:49:06;6.15;;;2.80;;
71836;SDS011;59686;51.716;7.016;2023-05-29T06:51:32;8.65;;;2.75;;
71836;SDS011;59686;51.716;7.016;2023-05-29T06:53:58;6.00;;;2.45;;
71836;SDS011;59686;51.716;7.016;2023-05-29T06:56:24;6.90;;;2.42;;
71836;SDS011;59686;51.716;7.016;2023-05-29T06:58:51;4.57;;;2.25;;
71836;SDS011;59686;51.716;7.016;2023-05-29T07:01:18;6.45;;;2.53;;
71836;SDS011;59686;51.716;7.016;2023-05-29T07:03:45;8.57;;;2.67;;
71836;SDS011;59686;51.716;7.016;2023-05-29T07:06:16;5.00;;;2.47;;
71836;SDS011;59686;51.716;7.016;2023-05-29T07:08:41;4.82;;;2.33;;
71836;SDS011;59686;51.716;7.016;2023-05-29T07:11:10;6.13;;;2.60;;
71836;SDS011;59686;51.716;7.016;2023-05-29T07:13:36;5.63;;;2.13;;
71836;SDS011;59686;51.716;7.016;2023-05-29T07:16:01;5.60;;;2.22;;
71836;SDS011;59686;51.716;7.016;2023-05-29T07:18:27;4.07;;;2.00;;
71836;SDS011;59686;51.716;7.016;2023-05-29T07:20:55;6.60;;;2.47;;
71836;SDS011;59686;51.716;7.016;2023-05-29T07:23:21;7.35;;;2.40;;
71836;SDS011;59686;51.716;7.016;2023-05-29T07:25:47;7.43;;;2.50;;
71836;SDS011;59686;51.716;7.016;2023-05-29T07:28:12;4.95;;;2.00;;
71836;SDS011;59686;51.716;7.016;2023-05-29T07:30:38;8.23;;;2.60;;
71836;SDS011;59686;51.716;7.016;2023-05-29T07:33:04;6.97;;;2.72;;
71836;SDS011;59686;51.716;7.016;2023-05-29T07:35:30;7.15;;;2.20;;
71836;SDS011;59686;51.716;7.016;2023-05-29T07:37:58;6.10;;;2.30;;
71836;SDS011;59686;51.716;7.016;2023-05-29T07:40:23;6.13;;;2.13;;
71836;SDS011;59686;51.716;7.016;2023-05-29T07:42:49;7.70;;;2.60;;
71836;SDS011;59686;51.716;7.016;2023-05-29T07:45:17;6.95;;;2.10;;
71836;SDS011;59686;51.716;7.016;2023-05-29T07:47:42;5.60;;;2.33;;
71836;SDS011;59686;51.716;7.016;2023-05-29T07:50:08;7.30;;;2.47;;
71836;SDS011;59686;51.716;7.016;2023-05-29T07:52:35;5.60;;;2.13;;
71836;SDS011;59686;51.716;7.016;2023-05-29T07:55:01;6.05;;;2.38;;
71836;SDS011;59686;51.716;7.016;2023-05-29T07:57:27;5.75;;;2.08;;
71836;SDS011;59686;51.716;7.016;2023-05-29T07:59:53;7.45;;;2.63;;
71836;SDS011;59686;51.716;7.016;2023-05-29T08:02:19;8.15;;;2.78;;
71836;SDS011;59686;51.716;7.016;2023-05-29T08:04:46;7.25;;;2.35;;
71836;SDS011;59686;51.716;7.016;2023-05-29T08:07:12;6.20;;;2.50;;
71836;SDS011;59686;51.716;7.016;2023-05-29T08:09:53;7.38;;;2.53;;
71836;SDS011;59686;51.716;7.016;2023-05-29T08:12:18;7.97;;;2.35;;
71836;SDS011;59686;51.716;7.016;2023-05-29T08:14:44;6.85;;;2.00;;
71836;SDS011;59686;51.716;7.016;2023-05-29T08:17:10;5.45;;;2.33;;
71836;SDS011;59686;51.716;7.016;2023-05-29T08:19:35;6.50;;;2.42;;
71836;SDS011;59686;51.716;7.016;2023-05-29T08:22:01;5.28;;;2.00;;
71836;SDS011;59686;51.716;7.016;2023-05-29T08:24:29;4.85;;;1.90;;
71836;SDS011;59686;51.716;7.016;2023-05-29T08:26:55;7.38;;;2.28;;
71836;SDS011;59686;51.716;7.016;2023-05-29T08:29:21;5.03;;;2.00;;
71836;SDS011;59686;51.716;7.016;2023-05-29T08:31:46;5.93;;;2.13;;
71836;SDS011;59686;51.716;7.016;2023-05-29T08:34:12;5.25;;;2.22;;
71836;SDS011;59686;51.716;7.016;2023-05-29T08:36:38;6.45;;;2.40;;
71836;SDS011;59686;51.716;7.016;2023-05-29T08:39:06;4.35;;;2.10;;
71836;SDS011;59686;51.716;7.016;2023-05-29T08:41:46;5.38;;;2.28;;
71836;SDS011;59686;51.716;7.016;2023-05-29T08:44:32;5.45;;;2.60;;
71836;SDS011;59686;51.716;7.016;2023-05-29T08:46:59;6.57;;;2.30;;
71836;SDS011;59686;51.716;7.016;2023-05-29T08:49:40;5.40;;;2.20;;
71836;SDS011;59686;51.716;7.016;2023-05-29T08:52:23;5.13;;;2.10;;
71836;SDS011;59686;51.716;7.016;2023-05-29T08:54:53;5.47;;;2.38;;
71836;SDS011;59686;51.716;7.016;2023-05-29T08:57:30;6.53;;;2.15;;
71836;SDS011;59686;51.716;7.016;2023-05-29T08:59:57;4.57;;;1.98;;
71836;SDS011;59686;51.716;7.016;2023-05-29T09:02:24;5.20;;;2.08;;
71836;SDS011;59686;51.716;7.016;2023-05-29T09:04:49;7.13;;;2.17;;
71836;SDS011;59686;51.716;7.016;2023-05-29T09:07:17;6.13;;;1.95;;
71836;SDS011;59686;51.716;7.016;2023-05-29T09:09:44;5.97;;;2.30;;
71836;SDS011;59686;51.716;7.016;2023-05-29T09:12:10;5.13;;;2.10;;
71836;SDS011;59686;51.716;7.016;2023-05-29T09:14:40;4.82;;;2.25;;
71836;SDS011;59686;51.716;7.016;2023-05-29T09:17:07;5.68;;;2.42;;
71836;SDS011;59686;51.716;7.016;2023-05-29T09:19:35;5.72;;;2.15;;
71836;SDS011;59686;51.716;7.016;2023-05-29T09:22:12;5.50;;;2.20;;
71836;SDS011;59686;51.716;7.016;2023-05-29T09:24:43;6.25;;;2.60;;
71836;SDS011;59686;51.716;7.016;2023-05-29T09:27:12;7.90;;;2.70;;
71836;SDS011;59686;51.716;7.016;2023-05-29T09:29:38;4.35;;;1.90;;
71836;SDS011;59686;51.716;7.016;2023-05-29T09:32:06;7.55;;;2.50;;
71836;SDS011;59686;51.716;7.016;2023-05-29T09:34:36;6.18;;;2.40;;
71836;SDS011;59686;51.716;7.016;2023-05-29T09:37:05;4.93;;;2.35;;
71836;SDS011;59686;51.716;7.016;2023-05-29T09:42:12;5.32;;;2.20;;
71836;SDS011;59686;51.716;7.016;2023-05-29T09:44:41;8.13;;;2.55;;
71836;SDS011;59686;51.716;7.016;2023-05-29T09:47:09;6.57;;;2.55;;
71836;SDS011;59686;51.716;7.016;2023-05-29T09:49:41;13.93;;;2.72;;
71836;SDS011;59686;51.716;7.016;2023-05-29T09:52:08;27.15;;;4.03;;
71836;SDS011;59686;51.716;7.016;2023-05-29T09:54:39;23.10;;;3.35;;
71836;SDS011;59686;51.716;7.016;2023-05-29T09:57:06;12.25;;;2.70;;
71836;SDS011;59686;51.716;7.016;2023-05-29T09:59:34;12.02;;;3.05;;
71836;SDS011;59686;51.716;7.016;2023-05-29T10:02:04;16.30;;;3.17;;
71836;SDS011;59686;51.716;7.016;2023-05-29T10:04:36;6.20;;;2.20;;
71836;SDS011;59686;51.716;7.016;2023-05-29T10:07:08;8.00;;;2.47;;
71836;SDS011;59686;51.716;7.016;2023-05-29T10:09:45;8.65;;;2.65;;
71836;SDS011;59686;51.716;7.016;2023-05-29T10:12:15;10.50;;;2.90;;
71836;SDS011;59686;51.716;7.016;2023-05-29T10:14:46;7.40;;;2.72;;
71836;SDS011;59686;51.716;7.016;2023-05-29T10:17:15;12.50;;;3.05;;
71836;SDS011;59686;51.716;7.016;2023-05-29T10:19:49;9.00;;;2.95;;
71836;SDS011;59686;51.716;7.016;2023-05-29T10:22:17;9.60;;;2.67;;
71836;SDS011;59686;51.716;7.016;2023-05-29T10:24:46;7.03;;;2.60;;
71836;SDS011;59686;51.716;7.016;2023-05-29T10:27:15;9.23;;;2.88;;
71836;SDS011;59686;51.716;7.016;2023-05-29T10:32:23;8.35;;;2.90;;
71836;SDS011;59686;51.716;7.016;2023-05-29T10:40:23;9.18;;;2.95;;
71836;SDS011;59686;51.716;7.016;2023-05-29T10:42:52;7.53;;;2.92;;
71836;SDS011;59686;51.716;7.016;2023-05-29T10:50:47;6.18;;;2.25;;
71836;SDS011;59686;51.716;7.016;2023-05-29T10:53:16;9.38;;;2.80;;
71836;SDS011;59686;51.716;7.016;2023-05-29T10:55:44;4.72;;;2.40;;
71836;SDS011;59686;51.716;7.016;2023-05-29T10:58:20;6.72;;;2.92;;
71836;SDS011;59686;51.716;7.016;2023-05-29T11:00:52;6.82;;;3.25;;
71836;SDS011;59686;51.716;7.016;2023-05-29T11:03:20;10.38;;;2.78;;
71836;SDS011;59686;51.716;7.016;2023-05-29T11:13:53;10.73;;;3.03;;
71836;SDS011;59686;51.716;7.016;2023-05-29T11:18:54;7.53;;;2.92;;
71836;SDS011;59686;51.716;7.016;2023-05-29T11:24:26;7.88;;;3.10;;
71836;SDS011;59686;51.716;7.016;2023-05-29T11:26:55;12.25;;;3.00;;
71836;SDS011;59686;51.716;7.016;2023-05-29T11:29:23;8.13;;;2.92;;
71836;SDS011;59686;51.716;7.016;2023-05-29T11:32:12;9.25;;;2.70;;
71836;SDS011;59686;51.716;7.016;2023-05-29T11:34:39;6.55;;;2.70;;
71836;SDS011;59686;51.716;7.016;2023-05-29T11:37:06;8.63;;;2.80;;
71836;SDS011;59686;51.716;7.016;2023-05-29T11:39:35;8.38;;;2.58;;
71836;SDS011;59686;51.716;7.016;2023-05-29T11:42:01;6.55;;;2.70;;
71836;SDS011;59686;51.716;7.016;2023-05-29T11:44:27;7.50;;;2.50;;
71836;SDS011;59686;51.716;7.016;2023-05-29T11:47:06;8.50;;;2.75;;
71836;SDS011;59686;51.716;7.016;2023-05-29T11:49:33;5.55;;;2.78;;
71836;SDS011;59686;51.716;7.016;2023-05-29T11:52:09;6.63;;;2.33;;
71836;SDS011;59686;51.716;7.016;2023-05-29T11:54:35;5.97;;;2.60;;
71836;SDS011;59686;51.716;7.016;2023-05-29T11:57:02;8.70;;;2.75;;
71836;SDS011;59686;51.716;7.016;2023-05-29T11:59:33;6.40;;;2.20;;
71836;SDS011;59686;51.716;7.016;2023-05-29T12:02:03;9.15;;;2.90;;
71836;SDS011;59686;51.716;7.016;2023-05-29T12:04:29;11.65;;;2.83;;
71836;SDS011;59686;51.716;7.016;2023-05-29T12:06:54;7.05;;;2.75;;
71836;SDS011;59686;51.716;7.016;2023-05-29T12:09:24;6.78;;;2.47;;
71836;SDS011;59686;51.716;7.016;2023-05-29T12:14:25;7.25;;;2.88;;
71836;SDS011;59686;51.716;7.016;2023-05-29T12:16:51;9.02;;;2.90;;
71836;SDS011;59686;51.716;7.016;2023-05-29T12:19:17;6.78;;;2.58;;
71836;SDS011;59686;51.716;7.016;2023-05-29T12:21:43;7.15;;;2.60;;
71836;SDS011;59686;51.716;7.016;2023-05-29T12:24:18;7.03;;;2.60;;
71836;SDS011;59686;51.716;7.016;2023-05-29T12:26:44;9.18;;;2.67;;
71836;SDS011;59686;51.716;7.016;2023-05-29T12:29:12;9.30;;;3.10;;
71836;SDS011;59686;51.716;7.016;2023-05-29T12:31:38;10.25;;;2.70;;
71836;SDS011;59686;51.716;7.016;2023-05-29T12:34:11;9.63;;;3.03;;
71836;SDS011;59686;51.716;7.016;2023-05-29T12:36:40;7.50;;;2.80;;
71836;SDS011;59686;51.716;7.016;2023-05-29T12:39:09;9.20;;;2.65;;
71836;SDS011;59686;51.716;7.016;2023-05-29T12:41:35;11.38;;;2.95;;
71836;SDS011;59686;51.716;7.016;2023-05-29T12:44:02;6.30;;;3.08;;
71836;SDS011;59686;51.716;7.016;2023-05-29T12:46:34;8.68;;;2.55;;
71836;SDS011;59686;51.716;7.016;2023-05-29T12:49:38;7.50;;;2.58;;
71836;SDS011;59686;51.716;7.016;2023-05-29T12:52:07;7.75;;;2.30;;
71836;SDS011;59686;51.716;7.016;2023-05-29T12:54:35;6.57;;;2.70;;
71836;SDS011;59686;51.716;7.016;2023-05-29T12:57:00;10.35;;;2.78;;
71836;SDS011;59686;51.716;7.016;2023-05-29T12:59:26;6.68;;;2.60;;
71836;SDS011;59686;51.716;7.016;2023-05-29T13:01:52;8.93;;;2.55;;
71836;SDS011;59686;51.716;7.016;2023-05-29T13:04:25;6.90;;;2.58;;
71836;SDS011;59686;51.716;7.016;2023-05-29T13:06:51;7.38;;;2.55;;
71836;SDS011;59686;51.716;7.016;2023-05-29T13:09:16;10.60;;;3.00;;
71836;SDS011;59686;51.716;7.016;2023-05-29T13:11:42;650.53;;;39.42;;
71836;SDS011;59686;51.716;7.016;2023-05-29T13:16:37;799.83;;;55.58;;
71836;SDS011;59686;51.716;7.016;2023-05-29T13:19:03;168.02;;;16.25;;
71836;SDS011;59686;51.716;7.016;2023-05-29T13:21:30;100.70;;;9.75;;
71836;SDS011;59686;51.716;7.016;2023-05-29T13:23:57;146.13;;;12.73;;
71836;SDS011;59686;51.716;7.016;2023-05-29T13:26:23;88.75;;;9.27;;
71836;SDS011;59686;51.716;7.016;2023-05-29T13:28:49;36.70;;;5.80;;
71836;SDS011;59686;51.716;7.016;2023-05-29T13:31:15;31.27;;;4.78;;
71836;SDS011;59686;51.716;7.016;2023-05-29T13:33:40;22.45;;;4.57;;
71836;SDS011;59686;51.716;7.016;2023-05-29T13:36:06;20.75;;;3.88;;
71836;SDS011;59686;51.716;7.016;2023-05-29T13:38:36;10.10;;;3.45;;
71836;SDS011;59686;51.716;7.016;2023-05-29T13:41:02;9.38;;;2.95;;
71836;SDS011;59686;51.716;7.016;2023-05-29T13:43:30;12.35;;;3.30;;
71836;SDS011;59686;51.716;7.016;2023-05-29T13:45:56;6.38;;;2.92;;
71836;SDS011;59686;51.716;7.016;2023-05-29T13:48:22;9.85;;;3.15;;
71836;SDS011;59686;51.716;7.016;2023-05-29T13:50:48;10.45;;;3.17;;
71836;SDS011;59686;51.716;7.016;2023-05-29T13:53:13;8.68;;;3.30;;
71836;SDS011;59686;51.716;7.016;2023-05-29T13:55:40;7.88;;;2.50;;
71836;SDS011;59686;51.716;7.016;2023-05-29T13:58:06;10.85;;;2.97;;
71836;SDS011;59686;51.716;7.016;2023-05-29T14:00:40;6.63;;;2.75;;
71836;SDS011;59686;51.716;7.016;2023-05-29T14:03:07;5.90;;;2.80;;
71836;SDS011;59686;51.716;7.016;2023-05-29T14:05:36;7.18;;;2.63;;
71836;SDS011;59686;51.716;7.016;2023-05-29T14:08:02;9.77;;;2.70;;
71836;SDS011;59686;51.716;7.016;2023-05-29T14:10:31;7.22;;;2.40;;
71836;SDS011;59686;51.716;7.016;2023-05-29T14:12:58;7.72;;;2.78;;
71836;SDS011;59686;51.716;7.016;2023-05-29T14:15:24;6.75;;;2.22;;
71836;SDS011;59686;51.716;7.016;2023-05-29T14:17:49;5.35;;;2.50;;
71836;SDS011;59686;51.716;7.016;2023-05-29T14:20:15;6.82;;;2.58;;
71836;SDS011;59686;51.716;7.016;2023-05-29T14:22:48;5.82;;;2.40;;
71836;SDS011;59686;51.716;7.016;2023-05-29T14:25:13;6.40;;;2.75;;
71836;SDS011;59686;51.716;7.016;2023-05-29T14:27:39;5.97;;;2.70;;
71836;SDS011;59686;51.716;7.016;2023-05-29T14:30:24;8.13;;;2.78;;
71836;SDS011;59686;51.716;7.016;2023-05-29T14:32:50;6.28;;;2.35;;
71836;SDS011;59686;51.716;7.016;2023-05-29T14:35:15;7.72;;;2.92;;
71836;SDS011;59686;51.716;7.016;2023-05-29T14:37:41;8.85;;;2.80;;
71836;SDS011;59686;51.716;7.016;2023-05-29T14:40:08;7.60;;;2.70;;
71836;SDS011;59686;51.716;7.016;2023-05-29T14:42:34;9.00;;;3.03;;
71836;SDS011;59686;51.716;7.016;2023-05-29T14:45:00;6.35;;;2.72;;
71836;SDS011;59686;51.716;7.016;2023-05-29T14:47:25;9.48;;;3.03;;
71836;SDS011;59686;51.716;7.016;2023-05-29T14:49:51;9.73;;;2.70;;
71836;SDS011;59686;51.716;7.016;2023-05-29T14:52:17;7.57;;;2.67;;
71836;SDS011;59686;51.716;7.016;2023-05-29T14:54:42;8.00;;;2.63;;
71836;SDS011;59686;51.716;7.016;2023-05-29T14:57:08;10.75;;;2.70;;
71836;SDS011;59686;51.716;7.016;2023-05-29T14:59:34;7.78;;;2.47;;
71836;SDS011;59686;51.716;7.016;2023-05-29T15:02:00;8.30;;;2.55;;
71836;SDS011;59686;51.716;7.016;2023-05-29T15:04:29;11.13;;;2.88;;
71836;SDS011;59686;51.716;7.016;2023-05-29T15:06:54;10.38;;;2.70;;
71836;SDS011;59686;51.716;7.016;2023-05-29T15:09:20;6.63;;;2.50;;
71836;SDS011;59686;51.716;7.016;2023-05-29T15:11:46;5.93;;;2.55;;
71836;SDS011;59686;51.716;7.016;2023-05-29T15:14:12;7.63;;;2.40;;
71836;SDS011;59686;51.716;7.016;2023-05-29T15:16:37;7.10;;;2.53;;
71836;SDS011;59686;51.716;7.016;2023-05-29T15:19:14;6.22;;;2.85;;
71836;SDS011;59686;51.716;7.016;2023-05-29T15:21:40;9.07;;;2.85;;
71836;SDS011;59686;51.716;7.016;2023-05-29T15:24:06;7.25;;;2.85;;
71836;SDS011;59686;51.716;7.016;2023-05-29T15:26:33;6.00;;;2.70;;
71836;SDS011;59686;51.716;7.016;2023-05-29T15:29:00;8.05;;;2.90;;
71836;SDS011;59686;51.716;7.016;2023-05-29T15:31:32;7.15;;;2.78;;
71836;SDS011;59686;51.716;7.016;2023-05-29T15:33:58;10.70;;;2.80;;
71836;SDS011;59686;51.716;7.016;2023-05-29T15:36:24;14.00;;;3.38;;
71836;SDS011;59686;51.716;7.016;2023-05-29T15:38:50;14.98;;;3.67;;
71836;SDS011;59686;51.716;7.016;2023-05-29T15:41:15;11.38;;;3.30;;